Scroll down
FLIGHT INFORMATION
PMDG Flight Operations

PFO104

At Arrival Gate

KSAN
 KIAD
DATE: 2019-01-05
GATE: 48
GATE DEPARTURE: 00:43
TAKEOFF: 00:56
DATE: 2019-01-05
GATE: B44
LANDING: 05:06
GATE ARRIVAL: 05:11
FLIGHT DATA
Crew: 
Speed: 
521 kts
Altitude: 
39,032 ft
Stage Length: 
1,953.5 nm
Block Time: 
4.5 hrs
Flight Time: 
4.2 hrs
Fuel Used: 
89,020 lb
Cleared Route: JETTI ZZOOO JORRJ GRIDR PIEZZ NSHEE MTBAL AVRRY EED TBC TXC HCT DSM BDF ROD APE AIR MGW BRNDN HIROY JIMVE TABBE KIKKR IGGGY MOSLE MONNK BMICH THZMN GIBBZ SUNYJ UDIYU MATTC
TRACK DATA
50,000 ft 1,000 kts
AIRCRAFT INFO AND CUMULATIVE STATS
Aircraft Type: 
B748
Registration: 
SELCAL: 
MSN/LN: 
0 / 1
Total Flights: 
26
Total Block Time: 
129.1 hrs
Total Flight Time: 
121.6 hrs
Total Fuel Time: 
2,490,876 lb
DATALINK LOG | Newest first | Current as of: 2020-12-05 22:26:54
LABEL SEQUENCE CONTENT Dn/Up
QD111105:11 36▼ Dn
QC063105:06▼ Dn
2U5740KIAD 050452Z 05005KT 3SM -RA BR OVC003 07/07 A2963 RMK AO2 RAB32 SLP033 P0001 T00670067 400781022▲ Up
2S5541KIAD▼ Dn
2U3317KIAD 050352Z 07004KT 4SM BR OVC006 07/07 A2968 RMK AO2 RAE0258 SLP051 P0000 T00720072▲ Up
2S3146KIAD▼ Dn
GA2724GATE B44▲ Up
GR2713KIAD▼ Dn
QB562300:56▼ Dn
QA434800:43 125▼ Dn
2U3624KSAN 042351Z 30005KT 10SM FEW250 17/04 A3000 RMK AO2 SLP157 T01670039 10172 20133 58006▲ Up
2S3416KSAN▼ Dn


AIRCRAFT HISTORY
FLIGHT DATE FLIGHT NO. ORIGIN DESTINATION CLEARED ROUTE BLOCK TIME FLIGHT TIME FUEL USED PILOT
2020-07-05PFO1KSFO WSSS KSFO AMAKR LINUZ NATTE 44N30 49N40 52N50 52N60 52N70 53E80 OPAKE OLCOT OPHET OGDEN OMOTO OPULO ONEMU OATIS VESET UGTAN NOGIX OLDIV LIGNI SAMUS HCE BUBDO OLDUP DOVAG BIXAK MDE AVLAS TUNTO GURAG VIGOR MUPOB JOM LABAY GALER TAPAP TELEN TOKON AGWAT TOSOV TENON TEGID TODAM TERIX BOBOB TOMAN WSSS16.8 hrs16.3 hrs368,530 lbMark Adeane
2020-05-03PFO505KSAN KSFO KSAN IKAYE RIZIN SPLNT STOKD SERFR KSFO1.8 hrs1.2 hrs33,169 lbCharles Harris
2020-05-02PFO502KONT KSAN KONT CIJHI RW270.8 hrs0.5 hrs13,728 lbKyle Weber
2020-04-23PFO423KVCV KONT KVCV ZEBLU RW26R0.4 hrs0.2 hrs6,871 lbKyle Weber
2020-01-19PFO119KLAX KVCV KLAX DOCKR EVOSE MKGEE MLIBU LADYJ OROSZ PMD VCV SCCAT RW170.8 hrs0.5 hrs12,915 lbDan Downs
2019-12-16PFO1216KSAN KLAX KSAN WNFLD GYWNN PADRZ CWARD MADOW SLI HUNDA RW25L0.8 hrs0.5 hrs11,915 lbKyle Weber
2019-08-11PFO811KLAX KSAN KLAX SLI DANAH OCN CARIF MZB CIJHI RW271.1 hrs0.7 hrs20,787 lbKyle Weber
2019-03-10PFO310KIAD KLAX KIAD LOULU BUNZZ RAMAY BENSH GEQUE HACKS VLA ALS JASSE AREAF ESGEE DNERO SLLRS FLOJO SALYY GLESN ANJLL CAANN BOYEL CRCUS KLAX5.7 hrs5.3 hrs116,776 lbKyle Rodgers
2019-01-05PFO104KSAN KIAD JETTI ZZOOO JORRJ GRIDR PIEZZ NSHEE MTBAL AVRRY EED TBC TXC HCT DSM BDF ROD APE AIR MGW BRNDN HIROY JIMVE TABBE KIKKR IGGGY MOSLE MONNK BMICH THZMN GIBBZ SUNYJ UDIYU MATTC4.5 hrs4.2 hrs89,020 lbKyle Rodgers
2018-12-15PFO1215KLAX KSAN SLI0.7 hrs0.6 hrs13,884 lbKyle Weber
2018-11-18PFO1117PHNL KLAX HAFNR JDUBB4.9 hrs4.5 hrs96,956 lbKyle Weber
2018-09-08PFO2348KIAD PHNL 9.9 hrs9.6 hrs208,462 lbMichael Roth
2018-08-30PFO830KLAX KIAD 4.5 hrs4.2 hrs81,607 lbKyle Rodgers
2018-08-26PFO826ESSA KLAX 10.9 hrs10.6 hrs218,317 lbKyle Rodgers
2018-08-25PFO825VHHH ESSA 11.1 hrs10.8 hrs186,493 lbKyle Rodgers
2018-08-23PFO823YSSY VHHH 9.1 hrs8.8 hrs176,434 lbKyle Rodgers
2018-08-23PFO823KLAX YSSY 15 hrs14.5 hrs313,157 lbKyle Rodgers
2018-08-22PFO822KIAD KLAX 5.1 hrs4.8 hrs83,770 lbKyle Rodgers
2018-08-22PFO822KBUF KIAD 1 hrs0.7 hrs17,096 lbKyle Rodgers
2018-08-18PFO817KJFK KBUF 1.2 hrs0.9 hrs16,918 lbKyle Weber
2018-08-13PFO813EHAM KJFK 8 hrs7.6 hrs133,345 lbKyle Rodgers
2018-08-12PFO812KATL EHAM 8.2 hrs7.6 hrs135,894 lbKyle Rodgers
2018-07-24PFO724KIAD KATL 1.6 hrs1.3 hrs25,532 lbKyle Rodgers
2018-07-22PFO722KLAS KIAD 4.2 hrs3.9 hrs67,720 lbKyle Rodgers
2018-07-22PFO722KLAX KLAS 1.2 hrs0.8 hrs20,486 lbKyle Rodgers
2018-06-30PFO122KSFO KLAX 1.4 hrs1 hrs21,094 lbPaul Gollnick